BGBWCYYR

Guest
Details From BGBW - Narsarsuaq
To CYYR - Goose Bay
Flight Number -
Tags decoded
Created
Modified
Stats Distance 707 nm / 1,310 km
Max Altitude 0 ft / 0 m
Waypoints 5
Social Downloads 0
Likes 0
Share VATSIM

Download

Looking for another format? Having issues loading an existing format? Contact us
Advertisement - Login to hide

Notes

Requested: BGBW NA SI CUDDY HO LISVO CYYR Unmatched points: LISVO

Route

BGBW NA SI HO CYYR

ID Type Via Altitude Latitude Longitude Leg Dist Tot Dist Heading (true) Name
O BGBW APT - 0 ft / 0 m 61.16052˚ -45.42598˚ - 0 nm - Narsarsuaq
NA NDB - 0 ft / 0 m 61.17074˚ -45.41295˚ 0 nm 0 nm 32° / 32° NARSARSUAQ NDB
SI NDB - 0 ft / 0 m 60.68167˚ -46.59611˚ 45 nm 46 nm 230° / 229° SIMIUTAQ NDB
HO NDB - 0 ft / 0 m 55.45750˚ -60.20917˚ 532 nm 578 nm 240° / 228° HOPEDALE NDB
O CYYR APT - 0 ft / 0 m 53.31882˚ -60.42389˚ 128 nm 707 nm 183° / 183° Goose Bay

Altitude Profile

Advertisement - Login to hide

Weather


0- 5 10 15 20 25 30 35+ Temperature / ° C

Clouds and Precipitation
Forecast for 2017-12-13 18:00 UTC. Updated an hour ago

Ground ~20,000 ft ~40,000 ft Winds

BGBW

Details ICAO BGBW (UAK)
Name Narsarsuaq
Region Greenland
Timezone America/Godthab (UTC-3.0)
Stats Elevation 112 ft / 34 m (AMSL)
Location 61.160516° -45.425976°
Runways 1
Magnetic Variation 22.906° W

METAR

BGBW 131350Z 06008KT 9999 FEW040 M06/M14 Q1010

Decode

TAF

Not found

Departure Runways

ID Width Length Bearing (true) Bearing (mag) Surface Threshold Offset Overrun Length
07 148 ft / 45 m 5,921 ft / 1,805 m 40.57° 63.48° Concrete 0 ft / 0 m 0 ft / 0 m
25 148 ft / 45 m 5,921 ft / 1,805 m 220.58° 243.49° Concrete 0 ft / 0 m 279 ft / 85 m

CYYR

Details ICAO CYYR (YYR)
Name Goose Bay
Region Canada
Timezone America/Goose_Bay (UTC-4.0)
Stats Elevation 160 ft / 49 m (AMSL)
Location 53.318820° -60.423890°
Runways 2
Magnetic Variation 20.964° W

METAR

CYYR 131418Z 33002KT 1 1/2SM -SN VV010 M17/M20 A3002 RMK SN8 SLP170

Decode

TAF

TAF AMD TAF AMD CYYR 131413Z 1314/1412 VRB03KT P6SM OVC025 TEMPO 1314/1316 11/2SM -SN OVC008 BECMG 1314/1316 05015KT FM131600 05015KT 1/2SM SN BLSN VV005 TEMPO 1316/1320 1SM -SN OVC025 PROB30 1317/1320 1/4SM +SN BLSN VV002 FM132000 06020KT 1SM -SNPL OVC020 FM140000 06015KT 2SM -FZRA -PL BR OVC020 FM140400 09015G28KT 6SM -RA BR OVC020 FM140800 18018G28KT P6SM -SHRA OVC030 FM141100 18012G22KT P6SM SCT030 BKN120 RMK NXT FCST BY 131800Z

Decode

Destination Runways

ID Width Length Bearing (true) Bearing (mag) Surface Threshold Offset Overrun Length
08 209 ft / 64 m 11,055 ft / 3,369 m 54.70° 75.66° Asphalt 0 ft / 0 m 1,000 ft / 305 m
16 200 ft / 61 m 9,515 ft / 2,900 m 132.96° 153.92° Asphalt 0 ft / 0 m 0 ft / 0 m
26 209 ft / 64 m 11,055 ft / 3,369 m 234.73° 255.69° Asphalt 0 ft / 0 m 1,000 ft / 305 m
34 200 ft / 61 m 9,515 ft / 2,900 m 312.99° 333.95° Asphalt 0 ft / 0 m 500 ft / 152 m

Popular Alternatives